createdAt,value
2022-09-20T00:00:24.191Z,13.57
2022-09-20T00:02:50.572Z,13.60
2022-09-20T00:05:17.535Z,13.59
2022-09-20T00:07:44.515Z,13.73
2022-09-20T00:10:11.881Z,13.85
2022-09-20T00:12:38.259Z,13.84
2022-09-20T00:15:05.631Z,13.69
2022-09-20T00:17:32.084Z,13.69
2022-09-20T00:19:58.412Z,13.76
2022-09-20T00:22:24.763Z,13.72
2022-09-20T00:24:51.192Z,13.74
2022-09-20T00:27:17.550Z,13.79
2022-09-20T00:29:43.916Z,13.76
2022-09-20T00:32:10.299Z,13.68
2022-09-20T00:34:55.311Z,13.64
2022-09-20T00:37:21.934Z,13.67
2022-09-20T00:39:48.277Z,13.62
2022-09-20T00:42:14.964Z,13.30
2022-09-20T00:44:41.414Z,13.32
2022-09-20T00:47:11.343Z,13.55
2022-09-20T00:49:37.739Z,13.44
2022-09-20T00:52:04.160Z,13.21
2022-09-20T00:54:31.575Z,13.23
2022-09-20T00:56:58.035Z,13.35
2022-09-20T00:59:27.108Z,13.51
2022-09-20T01:01:59.471Z,13.39
2022-09-20T01:04:27.388Z,13.33
2022-09-20T01:06:54.767Z,13.39
2022-09-20T01:09:21.349Z,13.52
2022-09-20T01:11:49.467Z,13.56
2022-09-20T01:14:18.808Z,13.39
2022-09-20T01:16:45.262Z,13.13
2022-09-20T01:19:17.308Z,13.31
2022-09-20T01:21:46.172Z,13.41
2022-09-20T01:24:28.414Z,13.44
2022-09-20T01:27:00.514Z,13.44
2022-09-20T01:29:29.848Z,13.55
2022-09-20T01:31:59.089Z,13.39
2022-09-20T01:34:31.131Z,13.45
2022-09-20T01:36:57.796Z,13.19
2022-09-20T01:39:30.493Z,13.24
2022-09-20T01:42:15.317Z,13.09
2022-09-20T01:44:44.451Z,13.25
2022-09-20T01:47:37.080Z,13.28
2022-09-20T01:50:11.235Z,13.31
2022-09-20T01:52:56.068Z,13.10
2022-09-20T01:55:38.687Z,13.12
2022-09-20T01:58:23.956Z,13.05
2022-09-20T02:01:19.965Z,13.14
2022-09-20T02:04:05.247Z,12.99
2022-09-20T02:06:31.560Z,13.08
2022-09-20T02:09:10.142Z,13.15
2022-09-20T02:11:45.606Z,13.04
2022-09-20T02:14:11.946Z,12.96
2022-09-20T02:16:44.219Z,13.18
2022-09-20T02:19:16.964Z,13.05
2022-09-20T02:21:46.311Z,13.08
2022-09-20T02:24:22.943Z,13.04
2022-09-20T02:27:07.715Z,13.24
2022-09-20T02:29:54.703Z,13.06
2022-09-20T02:32:56.806Z,13.14
2022-09-20T02:35:23.130Z,13.05
2022-09-20T02:38:09.906Z,12.79
2022-09-20T02:41:05.343Z,13.04
2022-09-20T02:43:51.452Z,13.21
2022-09-20T02:46:31.486Z,13.18
2022-09-20T02:49:06.983Z,13.20
2022-09-20T02:51:36.732Z,13.19
2022-09-20T02:54:22.063Z,13.17
2022-09-20T02:56:59.840Z,13.08
2022-09-20T02:59:26.140Z,13.34
2022-09-20T03:02:00.690Z,13.18
2022-09-20T03:04:33.136Z,13.21
2022-09-20T03:07:02.654Z,13.22
2022-09-20T03:09:43.328Z,13.05
2022-09-20T03:12:28.172Z,13.27
2022-09-20T03:15:05.994Z,13.35
2022-09-20T03:17:44.640Z,13.20
2022-09-20T03:20:26.126Z,13.33
2022-09-20T03:23:11.072Z,13.38
2022-09-20T03:25:47.330Z,13.35
2022-09-20T03:28:24.259Z,13.23
2022-09-20T03:31:05.811Z,13.31
2022-09-20T03:33:41.498Z,13.21
2022-09-20T03:36:13.960Z,13.27
2022-09-20T03:38:46.321Z,13.09
2022-09-20T03:41:15.639Z,13.20
2022-09-20T03:43:57.375Z,13.22
2022-09-20T03:46:27.051Z,13.02
2022-09-20T03:49:05.527Z,13.04
2022-09-20T03:51:38.578Z,12.92
2022-09-20T03:54:23.894Z,12.79
2022-09-20T03:56:58.641Z,12.91
2022-09-20T03:59:24.971Z,12.86
2022-09-20T04:01:58.851Z,12.70
2022-09-20T04:04:33.049Z,12.85
2022-09-20T04:07:08.187Z,12.74
2022-09-20T04:10:07.825Z,12.85
2022-09-20T04:12:57.536Z,12.78
2022-09-20T04:15:59.257Z,12.73
2022-09-20T04:18:41.254Z,12.95
2022-09-20T04:21:14.995Z,12.63
2022-09-20T04:23:44.354Z,12.79
2022-09-20T04:26:10.730Z,12.86
2022-09-20T04:28:48.604Z,12.86
2022-09-20T04:31:32.117Z,12.90
2022-09-20T04:34:00.561Z,12.75
2022-09-20T04:36:35.681Z,12.97
2022-09-20T04:39:07.858Z,13.09
2022-09-20T04:41:40.285Z,13.13
2022-09-20T04:44:27.692Z,13.13
2022-09-20T04:46:57.028Z,13.05
2022-09-20T04:49:29.567Z,12.92
2022-09-20T04:52:12.235Z,12.85
2022-09-20T04:54:57.779Z,13.02
2022-09-20T04:57:24.083Z,12.92
2022-09-20T05:00:07.347Z,12.72
2022-09-20T05:02:52.534Z,12.81
2022-09-20T05:05:21.954Z,13.00
2022-09-20T05:07:48.354Z,12.78
2022-09-20T05:10:24.492Z,12.72
2022-09-20T05:13:06.104Z,12.56
2022-09-20T05:15:37.862Z,12.68
2022-09-20T05:18:24.219Z,12.84
2022-09-20T05:21:09.144Z,12.84
2022-09-20T05:23:54.253Z,12.91
2022-09-20T05:26:27.233Z,13.04
2022-09-20T05:28:53.780Z,13.07
2022-09-20T05:31:40.229Z,12.96
2022-09-20T05:34:12.630Z,12.84
2022-09-20T05:36:48.687Z,12.97
2022-09-20T05:39:33.474Z,12.74
2022-09-20T05:42:12.535Z,12.58
2022-09-20T05:44:40.161Z,12.72
2022-09-20T05:47:06.478Z,12.70
2022-09-20T05:49:34.427Z,12.59
2022-09-20T05:52:11.748Z,12.99
2022-09-20T05:54:43.962Z,12.76
2022-09-20T05:57:16.753Z,12.69
2022-09-20T06:00:04.679Z,12.79
2022-09-20T06:03:05.108Z,12.84
2022-09-20T06:06:10.263Z,12.62
2022-09-20T06:08:39.821Z,12.69
2022-09-20T06:11:06.503Z,12.90
2022-09-20T06:13:36.004Z,12.61
2022-09-20T06:16:04.534Z,12.51
2022-09-20T06:18:40.501Z,12.66
2022-09-20T06:21:35.963Z,12.79
2022-09-20T06:24:04.760Z,12.78
2022-09-20T06:26:34.363Z,12.63
2022-09-20T06:29:03.473Z,12.58
2022-09-20T06:31:29.888Z,12.87
2022-09-20T06:34:15.473Z,12.97
2022-09-20T06:37:08.459Z,13.11
2022-09-20T06:40:05.668Z,13.08
2022-09-20T06:42:32.119Z,13.05
2022-09-20T06:44:58.685Z,12.95
2022-09-20T06:47:26.107Z,13.00
2022-09-20T06:49:52.656Z,12.97
2022-09-20T06:52:20.943Z,13.01
2022-09-20T06:54:49.577Z,13.30
2022-09-20T06:57:18.115Z,13.37
2022-09-20T06:59:45.607Z,13.41
2022-09-20T07:02:12.051Z,13.43
2022-09-20T07:04:38.431Z,13.58
2022-09-20T07:07:09.286Z,13.66
2022-09-20T07:09:36.080Z,13.60
2022-09-20T07:12:02.571Z,13.75
2022-09-20T07:14:28.977Z,13.79
2022-09-20T07:16:55.396Z,13.76
2022-09-20T07:19:23.244Z,13.65
2022-09-20T07:21:49.633Z,13.77
2022-09-20T07:24:16.032Z,13.75
2022-09-20T07:26:54.685Z,13.63
2022-09-20T07:29:21.321Z,13.59
2022-09-20T07:31:48.034Z,13.66
2022-09-20T07:34:14.402Z,13.65
2022-09-20T07:36:40.752Z,13.78
2022-09-20T07:39:07.128Z,13.83
2022-09-20T07:41:33.612Z,14.03
2022-09-20T07:44:19.950Z,13.98
2022-09-20T07:46:48.576Z,14.34
2022-09-20T07:49:15.000Z,14.07
2022-09-20T07:51:41.476Z,14.13
2022-09-20T07:54:07.842Z,14.38
2022-09-20T07:56:34.182Z,14.36
2022-09-20T07:59:00.561Z,14.24
2022-09-20T08:01:26.977Z,14.23
2022-09-20T08:03:54.760Z,14.32
2022-09-20T08:06:21.784Z,14.31
2022-09-20T08:08:48.292Z,14.69
2022-09-20T08:11:17.071Z,14.67
2022-09-20T08:14:07.172Z,14.54
2022-09-20T08:16:37.850Z,14.70
2022-09-20T08:19:04.279Z,14.56
2022-09-20T08:21:31.843Z,14.47
2022-09-20T08:23:59.051Z,14.55
2022-09-20T08:26:25.978Z,14.52
2022-09-20T08:28:53.814Z,14.62
2022-09-20T08:31:21.461Z,14.44
2022-09-20T08:33:48.655Z,14.78
2022-09-20T08:36:16.566Z,14.95
2022-09-20T08:41:31.984Z,14.71
2022-09-20T08:44:00.801Z,14.89
2022-09-20T08:46:29.205Z,15.07
2022-09-20T08:48:57.577Z,15.11
2022-09-20T08:51:25.603Z,15.22
2022-09-20T08:53:54.027Z,15.16
2022-09-20T08:56:20.961Z,15.35
2022-09-20T08:58:47.439Z,15.14
2022-09-20T09:01:18.683Z,15.30
2022-09-20T09:03:45.084Z,15.11
2022-09-20T09:06:18.354Z,15.33
2022-09-20T09:08:46.112Z,15.49
2022-09-20T09:11:14.659Z,15.36
2022-09-20T09:13:53.497Z,15.70
2022-09-20T09:16:24.661Z,15.47
2022-09-20T09:18:55.105Z,15.43
2022-09-20T09:21:26.811Z,15.45
2022-09-20T09:23:57.800Z,15.69
2022-09-20T09:26:24.926Z,15.53
2022-09-20T09:29:23.519Z,15.73
2022-09-20T09:31:54.632Z,15.74
2022-09-20T09:34:31.591Z,15.83
2022-09-20T09:36:58.434Z,15.96
2022-09-20T09:39:27.660Z,16.18
2022-09-20T09:41:54.536Z,15.53
2022-09-20T09:44:25.720Z,15.75
2022-09-20T09:46:53.560Z,15.82
2022-09-20T09:49:23.110Z,15.75
2022-09-20T09:51:55.527Z,16.20
2022-09-20T09:54:24.714Z,15.88
2022-09-20T09:56:57.258Z,15.88
2022-09-20T09:59:42.169Z,16.02
2022-09-20T10:02:27.500Z,15.72
2022-09-20T10:04:53.905Z,15.85
2022-09-20T10:07:40.593Z,15.73
2022-09-20T10:10:16.515Z,15.31
2022-09-20T10:13:09.037Z,15.22
2022-09-20T10:15:41.612Z,15.46
2022-09-20T10:18:23.371Z,15.40
2022-09-20T10:20:57.367Z,15.25
2022-09-20T10:23:58.966Z,15.26
2022-09-20T10:26:22.139Z,15.64
2022-09-20T10:29:01.996Z,15.45
2022-09-20T10:31:41.483Z,15.35
2022-09-20T10:34:27.063Z,15.11
2022-09-20T10:36:57.945Z,14.71
2022-09-20T10:39:27.407Z,14.85
2022-09-20T10:42:12.526Z,14.55
2022-09-20T10:44:52.596Z,14.43
2022-09-20T10:47:20.123Z,14.76
2022-09-20T10:49:52.717Z,14.82
2022-09-20T10:52:34.459Z,14.97
2022-09-20T10:55:03.565Z,14.89
2022-09-20T10:57:29.902Z,14.44
2022-09-20T11:00:22.775Z,14.93
2022-09-20T11:02:58.361Z,14.78
2022-09-20T11:05:24.666Z,15.18
2022-09-20T11:07:54.121Z,15.21
2022-09-20T11:10:22.675Z,15.30
2022-09-20T11:12:55.534Z,15.74
2022-09-20T11:15:29.581Z,15.96
2022-09-20T11:18:05.144Z,15.75
2022-09-20T11:20:51.777Z,15.49
2022-09-20T11:23:18.155Z,15.50
2022-09-20T11:26:00.528Z,15.55
2022-09-20T11:28:30.755Z,16.01
2022-09-20T11:31:15.782Z,15.73
2022-09-20T11:33:45.604Z,15.96
2022-09-20T11:36:17.041Z,15.76
2022-09-20T11:38:53.051Z,15.94
2022-09-20T11:41:26.040Z,16.18
2022-09-20T11:43:53.946Z,15.72
2022-09-20T11:46:26.610Z,15.93
2022-09-20T11:48:58.026Z,16.22
2022-09-20T11:51:24.335Z,16.20
2022-09-20T11:53:56.599Z,16.14
2022-09-20T11:56:22.903Z,16.32
2022-09-20T11:58:50.605Z,16.04
2022-09-20T12:01:37.229Z,16.32
2022-09-20T12:04:31.363Z,16.49
2022-09-20T12:07:04.558Z,16.54
2022-09-20T12:09:36.559Z,16.28
2022-09-20T12:12:22.141Z,16.39
2022-09-20T12:14:58.998Z,16.33
2022-09-20T12:17:45.391Z,16.62
2022-09-20T12:20:30.871Z,16.28
2022-09-20T12:23:17.074Z,16.55
2022-09-20T12:26:00.402Z,16.18
2022-09-20T12:28:34.149Z,16.44
2022-09-20T12:31:19.159Z,16.04
2022-09-20T12:34:04.147Z,15.91
2022-09-20T12:36:35.183Z,15.78
2022-09-20T12:39:17.549Z,15.84
2022-09-20T12:41:47.190Z,15.74
2022-09-20T12:44:39.892Z,16.00
2022-09-20T12:47:06.430Z,15.86
2022-09-20T12:50:06.711Z,16.01
2022-09-20T12:52:56.726Z,16.17
2022-09-20T12:55:30.034Z,16.32
2022-09-20T12:57:58.419Z,16.34
2022-09-20T13:00:36.766Z,16.31
2022-09-20T13:03:15.181Z,16.27
2022-09-20T13:05:48.676Z,16.31
2022-09-20T13:08:17.859Z,16.69
2022-09-20T13:10:51.747Z,16.68
2022-09-20T13:13:22.709Z,16.78
2022-09-20T13:15:51.592Z,16.66
2022-09-20T13:18:18.458Z,16.73
2022-09-20T13:20:45.393Z,16.83
2022-09-20T13:23:26.103Z,16.63
2022-09-20T13:25:53.469Z,16.66
2022-09-20T13:28:32.242Z,16.58
2022-09-20T13:31:16.132Z,16.73
2022-09-20T13:33:42.524Z,16.78
2022-09-20T13:36:08.908Z,16.80
2022-09-20T13:38:37.173Z,16.83
2022-09-20T13:41:06.204Z,16.69
2022-09-20T13:43:36.465Z,16.84
2022-09-20T13:46:21.308Z,16.62
2022-09-20T13:48:48.577Z,16.89
2022-09-20T13:51:17.571Z,16.86
2022-09-20T13:53:44.895Z,16.84
2022-09-20T13:56:20.118Z,17.00
2022-09-20T13:58:46.669Z,17.05
2022-09-20T14:01:22.007Z,16.85
2022-09-20T14:03:48.455Z,17.01
2022-09-20T14:06:15.993Z,17.15
2022-09-20T14:08:44.262Z,17.03
2022-09-20T14:11:13.749Z,17.04
2022-09-20T14:13:41.785Z,16.97
2022-09-20T14:16:08.707Z,16.68
2022-09-20T14:18:36.358Z,16.80
2022-09-20T14:21:02.806Z,16.99
2022-09-20T14:23:29.873Z,16.81
2022-09-20T14:26:21.408Z,16.95
2022-09-20T14:28:47.949Z,16.76
2022-09-20T14:31:16.165Z,16.97
2022-09-20T14:33:44.776Z,16.89
2022-09-20T14:36:15.896Z,16.81
2022-09-20T14:38:46.972Z,16.97
2022-09-20T14:41:13.606Z,16.89
2022-09-20T14:43:40.952Z,16.84
2022-09-20T14:46:15.383Z,16.67
2022-09-20T14:48:41.988Z,17.09
2022-09-20T14:51:11.615Z,17.20
2022-09-20T14:53:38.451Z,16.90
2022-09-20T14:56:04.820Z,16.71
2022-09-20T14:58:31.432Z,16.73
2022-09-20T15:01:13.346Z,17.00
2022-09-20T15:03:41.439Z,16.90
2022-09-20T15:06:11.563Z,17.06
2022-09-20T15:08:38.692Z,17.11
2022-09-20T15:11:07.075Z,16.98
2022-09-20T15:13:33.488Z,17.04
2022-09-20T15:15:59.877Z,17.27
2022-09-20T15:18:27.639Z,16.91
2022-09-20T15:20:54.671Z,16.95
2022-09-20T15:23:21.272Z,16.89
2022-09-20T15:25:51.957Z,17.09
2022-09-20T15:28:18.439Z,17.09
2022-09-20T15:30:46.112Z,17.10
2022-09-20T15:33:13.317Z,17.09
2022-09-20T15:35:40.558Z,17.05
2022-09-20T15:38:08.957Z,17.15
2022-09-20T15:40:35.996Z,16.95
2022-09-20T15:43:02.389Z,17.16
2022-09-20T15:45:29.322Z,17.26
2022-09-20T15:47:57.615Z,17.48
2022-09-20T15:50:24.827Z,17.22
2022-09-20T15:52:51.786Z,17.84
2022-09-20T15:55:18.891Z,16.87
2022-09-20T15:57:45.371Z,17.11
2022-09-20T16:00:11.929Z,17.31
2022-09-20T16:02:38.299Z,17.23
2022-09-20T16:05:05.872Z,17.53
2022-09-20T16:07:32.204Z,17.59
2022-09-20T16:09:58.581Z,17.21
2022-09-20T16:12:25.259Z,17.65
2022-09-20T16:14:51.643Z,17.72
2022-09-20T16:17:18.100Z,17.37
2022-09-20T16:19:48.565Z,17.46
2022-09-20T16:22:15.801Z,17.53
2022-09-20T16:24:42.186Z,17.95
2022-09-20T16:27:09.662Z,17.34
2022-09-20T16:29:36.027Z,17.20
2022-09-20T16:32:05.942Z,17.28
2022-09-20T16:34:32.271Z,17.71
2022-09-20T16:37:03.419Z,17.34
2022-09-20T16:39:30.337Z,17.10
2022-09-20T16:41:57.937Z,16.77
2022-09-20T16:44:24.512Z,17.28
2022-09-20T16:46:51.279Z,17.07
2022-09-20T16:49:17.772Z,17.39
2022-09-20T16:51:44.944Z,17.17
2022-09-20T16:54:12.924Z,17.19
2022-09-20T16:56:40.390Z,16.95
2022-09-20T16:59:07.442Z,17.20
2022-09-20T17:01:34.516Z,17.56
2022-09-20T17:04:05.225Z,17.31
2022-09-20T17:06:34.166Z,17.27
2022-09-20T17:09:00.996Z,17.55
2022-09-20T17:11:29.091Z,17.09
2022-09-20T17:13:56.256Z,16.83
2022-09-20T17:16:24.253Z,16.75
2022-09-20T17:18:54.687Z,16.83
2022-09-20T17:21:22.240Z,16.94
2022-09-20T17:23:52.082Z,17.06
2022-09-20T17:26:19.929Z,16.88
2022-09-20T17:28:47.612Z,16.72
2022-09-20T17:31:15.679Z,16.81
2022-09-20T17:33:42.701Z,16.94
2022-09-20T17:36:12.159Z,16.78
2022-09-20T17:38:39.307Z,16.96
2022-09-20T17:41:10.658Z,16.79
2022-09-20T17:43:37.315Z,16.74
2022-09-20T17:46:07.236Z,16.60
2022-09-20T17:48:36.638Z,16.74
2022-09-20T17:51:03.723Z,16.69
2022-09-20T17:53:31.186Z,16.52
2022-09-20T17:55:58.345Z,16.87
2022-09-20T17:58:25.750Z,16.48
2022-09-20T18:00:56.482Z,16.45
2022-09-20T18:03:23.917Z,16.73
2022-09-20T18:05:51.213Z,16.46
2022-09-20T18:08:17.574Z,16.82
2022-09-20T18:10:56.714Z,16.74
2022-09-20T18:13:23.174Z,16.75
2022-09-20T18:15:49.619Z,16.71
2022-09-20T18:18:16.059Z,16.70
2022-09-20T18:20:42.413Z,16.75
2022-09-20T18:23:08.762Z,16.59
2022-09-20T18:25:55.093Z,16.76
2022-09-20T18:28:21.463Z,16.80
2022-09-20T18:30:48.511Z,16.23
2022-09-20T18:33:17.953Z,16.46
2022-09-20T18:35:44.389Z,16.53
2022-09-20T18:38:11.983Z,16.70
2022-09-20T18:40:38.490Z,16.73
2022-09-20T18:43:07.615Z,16.76
2022-09-20T18:45:34.652Z,16.71
2022-09-20T18:48:01.048Z,16.67
2022-09-20T18:50:27.418Z,16.65
2022-09-20T18:52:53.746Z,16.60
2022-09-20T18:55:20.217Z,16.58
2022-09-20T18:57:46.792Z,16.54
2022-09-20T19:00:14.326Z,16.51
2022-09-20T19:02:46.894Z,16.49
2022-09-20T19:05:17.805Z,16.48
2022-09-20T19:07:57.521Z,16.46
2022-09-20T19:10:27.012Z,16.42
2022-09-20T19:13:03.468Z,16.36
2022-09-20T19:15:48.458Z,16.33
2022-09-20T19:18:35.579Z,16.29
2022-09-20T19:21:13.909Z,16.20
2022-09-20T19:23:49.344Z,16.17
2022-09-20T19:26:21.664Z,16.15
2022-09-20T19:28:59.954Z,16.11
2022-09-20T19:31:28.103Z,16.12
2022-09-20T19:33:55.199Z,16.04
2022-09-20T19:36:25.526Z,16.02
2022-09-20T19:38:58.235Z,16.02
2022-09-20T19:41:46.107Z,15.99
2022-09-20T19:44:15.311Z,15.96
2022-09-20T19:46:55.727Z,15.92
2022-09-20T19:49:29.935Z,15.90
2022-09-20T19:51:57.803Z,15.85
2022-09-20T19:54:24.606Z,15.82
2022-09-20T19:56:55.428Z,15.79
2022-09-20T19:59:22.618Z,15.74
2022-09-20T20:01:49.843Z,15.72
2022-09-20T20:04:16.399Z,15.71
2022-09-20T20:07:09.034Z,15.69
2022-09-20T20:09:44.273Z,15.62
2022-09-20T20:12:14.440Z,15.59
2022-09-20T20:14:46.599Z,15.57
2022-09-20T20:17:33.363Z,15.57
2022-09-20T20:20:04.484Z,15.50
2022-09-20T20:22:49.468Z,15.46
2022-09-20T20:25:26.242Z,15.43
2022-09-20T20:27:52.942Z,15.40
2022-09-20T20:30:20.208Z,15.40
2022-09-20T20:32:46.581Z,15.39
2022-09-20T20:35:14.916Z,15.37
2022-09-20T20:37:41.287Z,15.34
2022-09-20T20:40:12.157Z,15.27
2022-09-20T20:42:38.684Z,15.26
2022-09-20T20:45:05.893Z,15.24
2022-09-20T20:47:34.360Z,15.22
2022-09-20T20:50:00.834Z,15.21
2022-09-20T20:52:27.240Z,15.21
2022-09-20T20:54:53.601Z,15.19
2022-09-20T20:57:19.981Z,15.18
2022-09-20T20:59:46.350Z,15.17
2022-09-20T21:02:12.729Z,15.15
2022-09-20T21:04:40.369Z,15.14
2022-09-20T21:07:06.764Z,15.14
2022-09-20T21:09:33.195Z,15.11
2022-09-20T21:11:59.551Z,15.10
2022-09-20T21:14:25.901Z,15.09
2022-09-20T21:16:52.231Z,15.05
2022-09-20T21:19:19.012Z,15.06
2022-09-20T21:21:47.087Z,14.99
2022-09-20T21:24:15.185Z,15.02
2022-09-20T21:26:41.527Z,14.99
2022-09-20T21:29:10.840Z,14.97
2022-09-20T21:31:38.923Z,14.96
2022-09-20T21:34:06.808Z,14.97
2022-09-20T21:36:33.992Z,14.94
2022-09-20T21:39:00.474Z,14.91
2022-09-20T21:41:29.240Z,14.87
2022-09-20T21:43:56.369Z,14.88
2022-09-20T21:46:26.200Z,14.85
2022-09-20T21:48:53.210Z,14.85
2022-09-20T21:51:20.518Z,14.85
2022-09-20T21:53:48.164Z,14.82
2022-09-20T21:56:18.978Z,14.78
2022-09-20T21:58:48.617Z,14.75
2022-09-20T22:01:16.153Z,14.75
2022-09-20T22:03:42.534Z,14.72
2022-09-20T22:06:09.114Z,14.72
2022-09-20T22:08:37.257Z,14.67
2022-09-20T22:11:04.211Z,14.65
2022-09-20T22:13:30.983Z,14.59
2022-09-20T22:16:07.870Z,14.59
2022-09-20T22:18:35.562Z,14.56
2022-09-20T22:21:03.263Z,14.55
2022-09-20T22:23:30.011Z,14.53
2022-09-20T22:26:00.435Z,14.50
2022-09-20T22:28:26.933Z,14.46
2022-09-20T22:30:53.305Z,14.45
2022-09-20T22:33:19.678Z,14.44
2022-09-20T22:35:46.045Z,14.42
2022-09-20T22:38:12.390Z,14.37
2022-09-20T22:40:38.741Z,14.37
2022-09-20T22:43:05.081Z,14.33
2022-09-20T22:45:32.075Z,14.29
2022-09-20T22:47:58.477Z,14.30
2022-09-20T22:50:24.810Z,14.26
2022-09-20T22:52:51.168Z,14.22
2022-09-20T22:55:17.484Z,14.17
2022-09-20T22:57:43.794Z,14.15
2022-09-20T23:00:10.463Z,14.16
2022-09-20T23:02:36.791Z,14.09
2022-09-20T23:05:03.403Z,14.10
2022-09-20T23:07:30.141Z,14.09
2022-09-20T23:09:56.490Z,14.06
2022-09-20T23:12:22.840Z,14.03
2022-09-20T23:14:49.162Z,14.01
2022-09-20T23:17:15.644Z,13.97
2022-09-20T23:19:42.010Z,13.92
2022-09-20T23:22:08.348Z,13.91
2022-09-20T23:24:35.755Z,13.91
2022-09-20T23:27:02.108Z,13.89
2022-09-20T23:29:29.418Z,13.88
2022-09-20T23:31:55.727Z,13.85
2022-09-20T23:34:22.043Z,13.83
2022-09-20T23:36:48.411Z,13.80
2022-09-20T23:39:15.216Z,13.80
2022-09-20T23:41:41.821Z,13.79
2022-09-20T23:44:09.993Z,13.76
2022-09-20T23:46:36.415Z,13.75
2022-09-20T23:49:02.871Z,13.75
2022-09-20T23:51:30.593Z,13.73
2022-09-20T23:53:56.967Z,13.71
2022-09-20T23:56:23.835Z,13.70
2022-09-20T23:58:50.205Z,13.67
